sensor_id;sensor_type;location;lat;lon;timestamp;temperature;humidity
18225;DHT22;9237;48.590;8.854;2023-01-10T00:00:04;3.40;99.90
18225;DHT22;9237;48.590;8.854;2023-01-10T00:02:33;3.40;99.90
18225;DHT22;9237;48.590;8.854;2023-01-10T00:05:00;3.40;99.90
18225;DHT22;9237;48.590;8.854;2023-01-10T00:07:27;3.40;99.90
18225;DHT22;9237;48.590;8.854;2023-01-10T00:09:53;3.40;99.90
18225;DHT22;9237;48.590;8.854;2023-01-10T00:12:20;3.40;99.90
18225;DHT22;9237;48.590;8.854;2023-01-10T00:15:05;3.40;99.90
18225;DHT22;9237;48.590;8.854;2023-01-10T00:17:33;3.40;99.90
18225;DHT22;9237;48.590;8.854;2023-01-10T00:20:00;3.30;99.90
18225;DHT22;9237;48.590;8.854;2023-01-10T00:22:27;3.40;99.90
18225;DHT22;9237;48.590;8.854;2023-01-10T00:24:54;3.30;99.90
18225;DHT22;9237;48.590;8.854;2023-01-10T00:27:21;3.30;99.90
18225;DHT22;9237;48.590;8.854;2023-01-10T00:29:48;3.30;99.90
18225;DHT22;9237;48.590;8.854;2023-01-10T00:32:16;3.30;99.90
18225;DHT22;9237;48.590;8.854;2023-01-10T00:34:45;3.30;99.90
18225;DHT22;9237;48.590;8.854;2023-01-10T00:37:12;3.30;99.90
18225;DHT22;9237;48.590;8.854;2023-01-10T00:39:38;3.40;99.90
18225;DHT22;9237;48.590;8.854;2023-01-10T00:42:06;3.40;99.90
18225;DHT22;9237;48.590;8.854;2023-01-10T00:44:50;3.40;99.90
18225;DHT22;9237;48.590;8.854;2023-01-10T00:47:17;3.40;99.90
18225;DHT22;9237;48.590;8.854;2023-01-10T00:49:45;3.40;99.90
18225;DHT22;9237;48.590;8.854;2023-01-10T00:52:12;3.30;99.90
18225;DHT22;9237;48.590;8.854;2023-01-10T00:54:39;3.30;99.90
18225;DHT22;9237;48.590;8.854;2023-01-10T00:57:05;3.30;99.90
18225;DHT22;9237;48.590;8.854;2023-01-10T00:59:32;3.30;99.90
18225;DHT22;9237;48.590;8.854;2023-01-10T01:01:59;3.30;99.90
18225;DHT22;9237;48.590;8.854;2023-01-10T01:04:26;3.30;99.90
18225;DHT22;9237;48.590;8.854;2023-01-10T01:06:54;3.30;99.90
18225;DHT22;9237;48.590;8.854;2023-01-10T01:09:21;3.30;99.90
18225;DHT22;9237;48.590;8.854;2023-01-10T01:11:47;3.30;99.90
18225;DHT22;9237;48.590;8.854;2023-01-10T01:14:14;3.30;99.90
18225;DHT22;9237;48.590;8.854;2023-01-10T01:16:41;3.30;99.90
18225;DHT22;9237;48.590;8.854;2023-01-10T01:19:08;3.30;99.90
18225;DHT22;9237;48.590;8.854;2023-01-10T01:21:35;3.30;99.90
18225;DHT22;9237;48.590;8.854;2023-01-10T01:24:04;3.30;99.90
18225;DHT22;9237;48.590;8.854;2023-01-10T01:26:31;3.40;99.90
18225;DHT22;9237;48.590;8.854;2023-01-10T01:28:59;3.30;99.90
18225;DHT22;9237;48.590;8.854;2023-01-10T01:31:26;3.30;99.90
18225;DHT22;9237;48.590;8.854;2023-01-10T01:33:53;3.40;99.90
18225;DHT22;9237;48.590;8.854;2023-01-10T01:36:20;3.30;99.90
18225;DHT22;9237;48.590;8.854;2023-01-10T01:38:46;3.30;99.90
18225;DHT22;9237;48.590;8.854;2023-01-10T01:41:15;3.40;99.90
18225;DHT22;9237;48.590;8.854;2023-01-10T01:44:03;3.40;99.90
18225;DHT22;9237;48.590;8.854;2023-01-10T01:46:33;3.40;99.90
18225;DHT22;9237;48.590;8.854;2023-01-10T01:49:02;3.40;99.90
18225;DHT22;9237;48.590;8.854;2023-01-10T01:51:31;3.40;99.90
18225;DHT22;9237;48.590;8.854;2023-01-10T01:54:00;3.50;99.90
18225;DHT22;9237;48.590;8.854;2023-01-10T01:56:33;3.50;99.90
18225;DHT22;9237;48.590;8.854;2023-01-10T01:59:04;3.50;99.90
18225;DHT22;9237;48.590;8.854;2023-01-10T02:01:33;3.60;99.90
18225;DHT22;9237;48.590;8.854;2023-01-10T02:04:07;3.60;99.90
18225;DHT22;9237;48.590;8.854;2023-01-10T02:06:34;3.50;99.90
18225;DHT22;9237;48.590;8.854;2023-01-10T02:09:06;3.50;99.90
18225;DHT22;9237;48.590;8.854;2023-01-10T02:11:37;3.50;99.90
18225;DHT22;9237;48.590;8.854;2023-01-10T02:14:04;3.50;99.90
18225;DHT22;9237;48.590;8.854;2023-01-10T02:16:32;3.50;99.90
18225;DHT22;9237;48.590;8.854;2023-01-10T02:18:59;3.50;99.90
18225;DHT22;9237;48.590;8.854;2023-01-10T02:25:17;3.50;99.90
18225;DHT22;9237;48.590;8.854;2023-01-10T02:28:02;3.50;99.90
18225;DHT22;9237;48.590;8.854;2023-01-10T02:31:01;3.40;99.90
18225;DHT22;9237;48.590;8.854;2023-01-10T02:33:38;3.40;99.90
18225;DHT22;9237;48.590;8.854;2023-01-10T02:36:22;3.40;99.90
18225;DHT22;9237;48.590;8.854;2023-01-10T02:38:56;3.40;99.90
18225;DHT22;9237;48.590;8.854;2023-01-10T02:41:28;3.40;99.90
18225;DHT22;9237;48.590;8.854;2023-01-10T02:43:59;3.40;99.90
18225;DHT22;9237;48.590;8.854;2023-01-10T02:46:30;3.50;99.90
18225;DHT22;9237;48.590;8.854;2023-01-10T02:48:58;3.40;99.90
18225;DHT22;9237;48.590;8.854;2023-01-10T02:51:27;3.40;99.90
18225;DHT22;9237;48.590;8.854;2023-01-10T02:53:58;3.40;99.90
18225;DHT22;9237;48.590;8.854;2023-01-10T03:02:23;3.40;99.90
18225;DHT22;9237;48.590;8.854;2023-01-10T03:05:02;3.40;99.90
18225;DHT22;9237;48.590;8.854;2023-01-10T03:07:37;3.40;99.90
18225;DHT22;9237;48.590;8.854;2023-01-10T03:10:09;3.40;99.90
18225;DHT22;9237;48.590;8.854;2023-01-10T03:12:44;3.40;99.90
18225;DHT22;9237;48.590;8.854;2023-01-10T03:15:15;3.40;99.90
18225;DHT22;9237;48.590;8.854;2023-01-10T03:17:46;3.40;99.90
18225;DHT22;9237;48.590;8.854;2023-01-10T03:20:19;3.40;99.90
18225;DHT22;9237;48.590;8.854;2023-01-10T03:22:46;3.40;99.90
18225;DHT22;9237;48.590;8.854;2023-01-10T03:25:15;2.90;99.90
18225;DHT22;9237;48.590;8.854;2023-01-10T03:27:47;3.30;99.90
18225;DHT22;9237;48.590;8.854;2023-01-10T03:30:24;3.30;99.90
18225;DHT22;9237;48.590;8.854;2023-01-10T03:32:52;3.30;99.90
18225;DHT22;9237;48.590;8.854;2023-01-10T03:35:23;3.30;99.90
18225;DHT22;9237;48.590;8.854;2023-01-10T03:37:57;3.20;99.90
18225;DHT22;9237;48.590;8.854;2023-01-10T03:40:29;3.20;99.90
18225;DHT22;9237;48.590;8.854;2023-01-10T03:43:02;3.20;99.90
18225;DHT22;9237;48.590;8.854;2023-01-10T03:45:54;3.20;99.90
18225;DHT22;9237;48.590;8.854;2023-01-10T03:48:26;3.10;99.90
18225;DHT22;9237;48.590;8.854;2023-01-10T03:50:58;3.10;99.90
18225;DHT22;9237;48.590;8.854;2023-01-10T03:53:28;3.00;99.90
18225;DHT22;9237;48.590;8.854;2023-01-10T03:55:55;3.00;99.90
18225;DHT22;9237;48.590;8.854;2023-01-10T03:58:22;2.90;99.90
18225;DHT22;9237;48.590;8.854;2023-01-10T04:00:49;2.90;99.90
18225;DHT22;9237;48.590;8.854;2023-01-10T04:03:15;2.90;99.90
18225;DHT22;9237;48.590;8.854;2023-01-10T04:05:42;2.90;99.90
18225;DHT22;9237;48.590;8.854;2023-01-10T04:08:10;2.80;99.90
18225;DHT22;9237;48.590;8.854;2023-01-10T04:10:37;2.80;99.90
18225;DHT22;9237;48.590;8.854;2023-01-10T04:13:04;2.80;99.90
18225;DHT22;9237;48.590;8.854;2023-01-10T04:15:31;2.70;99.90
18225;DHT22;9237;48.590;8.854;2023-01-10T04:17:58;2.70;99.90
18225;DHT22;9237;48.590;8.854;2023-01-10T04:20:25;2.70;99.90
18225;DHT22;9237;48.590;8.854;2023-01-10T04:22:52;2.10;99.90
18225;DHT22;9237;48.590;8.854;2023-01-10T04:25:21;2.70;99.90
18225;DHT22;9237;48.590;8.854;2023-01-10T04:27:48;2.70;99.90
18225;DHT22;9237;48.590;8.854;2023-01-10T04:30:15;2.80;99.90
18225;DHT22;9237;48.590;8.854;2023-01-10T04:32:42;2.80;99.90
18225;DHT22;9237;48.590;8.854;2023-01-10T04:35:09;2.70;99.90
18225;DHT22;9237;48.590;8.854;2023-01-10T04:37:36;2.80;99.90
18225;DHT22;9237;48.590;8.854;2023-01-10T04:40:03;2.80;99.90
18225;DHT22;9237;48.590;8.854;2023-01-10T04:42:32;2.80;99.90
18225;DHT22;9237;48.590;8.854;2023-01-10T04:44:59;2.80;99.90
18225;DHT22;9237;48.590;8.854;2023-01-10T04:47:25;2.90;99.90
18225;DHT22;9237;48.590;8.854;2023-01-10T04:49:52;2.80;99.90
18225;DHT22;9237;48.590;8.854;2023-01-10T04:52:19;2.90;99.90
18225;DHT22;9237;48.590;8.854;2023-01-10T04:54:46;3.00;99.90
18225;DHT22;9237;48.590;8.854;2023-01-10T04:57:13;2.90;99.90
18225;DHT22;9237;48.590;8.854;2023-01-10T04:59:41;2.90;99.90
18225;DHT22;9237;48.590;8.854;2023-01-10T05:02:07;3.00;99.90
18225;DHT22;9237;48.590;8.854;2023-01-10T05:04:34;3.00;99.90
18225;DHT22;9237;48.590;8.854;2023-01-10T05:07:01;3.00;99.90
18225;DHT22;9237;48.590;8.854;2023-01-10T05:09:28;3.10;99.90
18225;DHT22;9237;48.590;8.854;2023-01-10T05:11:55;3.20;99.90
18225;DHT22;9237;48.590;8.854;2023-01-10T05:14:21;3.10;99.90
18225;DHT22;9237;48.590;8.854;2023-01-10T05:16:49;3.10;99.90
18225;DHT22;9237;48.590;8.854;2023-01-10T05:19:16;3.20;99.90
18225;DHT22;9237;48.590;8.854;2023-01-10T05:21:43;3.20;99.90
18225;DHT22;9237;48.590;8.854;2023-01-10T05:24:10;3.30;99.90
18225;DHT22;9237;48.590;8.854;2023-01-10T05:26:37;3.30;99.90
18225;DHT22;9237;48.590;8.854;2023-01-10T05:29:03;3.30;99.90
18225;DHT22;9237;48.590;8.854;2023-01-10T05:31:30;3.30;99.90
18225;DHT22;9237;48.590;8.854;2023-01-10T05:33:58;3.30;99.90
18225;DHT22;9237;48.590;8.854;2023-01-10T05:36:25;3.40;99.90
18225;DHT22;9237;48.590;8.854;2023-01-10T05:38:52;3.40;99.90
18225;DHT22;9237;48.590;8.854;2023-01-10T05:41:19;3.40;99.90
18225;DHT22;9237;48.590;8.854;2023-01-10T05:43:45;3.40;99.90
18225;DHT22;9237;48.590;8.854;2023-01-10T05:46:12;3.40;99.90
18225;DHT22;9237;48.590;8.854;2023-01-10T05:48:39;3.40;99.90
18225;DHT22;9237;48.590;8.854;2023-01-10T05:51:07;3.30;99.90
18225;DHT22;9237;48.590;8.854;2023-01-10T05:53:34;3.40;99.90
18225;DHT22;9237;48.590;8.854;2023-01-10T05:56:02;3.30;99.90
18225;DHT22;9237;48.590;8.854;2023-01-10T05:58:29;3.30;99.90
18225;DHT22;9237;48.590;8.854;2023-01-10T06:00:56;3.20;99.90
18225;DHT22;9237;48.590;8.854;2023-01-10T06:03:24;3.20;99.90
18225;DHT22;9237;48.590;8.854;2023-01-10T06:05:51;3.20;99.90
18225;DHT22;9237;48.590;8.854;2023-01-10T06:08:20;3.20;99.90
18225;DHT22;9237;48.590;8.854;2023-01-10T06:10:47;3.20;99.90
18225;DHT22;9237;48.590;8.854;2023-01-10T06:13:14;3.20;99.90
18225;DHT22;9237;48.590;8.854;2023-01-10T06:15:42;3.20;99.90
18225;DHT22;9237;48.590;8.854;2023-01-10T06:18:09;3.20;99.90
18225;DHT22;9237;48.590;8.854;2023-01-10T06:20:36;3.20;99.90
18225;DHT22;9237;48.590;8.854;2023-01-10T06:23:02;3.20;99.90
18225;DHT22;9237;48.590;8.854;2023-01-10T06:25:31;3.10;99.90
18225;DHT22;9237;48.590;8.854;2023-01-10T06:27:58;3.10;99.90
18225;DHT22;9237;48.590;8.854;2023-01-10T06:30:25;3.10;99.90
18225;DHT22;9237;48.590;8.854;2023-01-10T06:32:52;3.10;99.90
18225;DHT22;9237;48.590;8.854;2023-01-10T06:35:18;3.10;99.90
18225;DHT22;9237;48.590;8.854;2023-01-10T06:37:45;3.10;99.90
18225;DHT22;9237;48.590;8.854;2023-01-10T06:40:12;3.10;99.90
18225;DHT22;9237;48.590;8.854;2023-01-10T06:42:40;3.10;99.90
18225;DHT22;9237;48.590;8.854;2023-01-10T06:45:08;3.10;99.90
18225;DHT22;9237;48.590;8.854;2023-01-10T06:47:35;2.90;99.90
18225;DHT22;9237;48.590;8.854;2023-01-10T06:50:04;2.90;99.90
18225;DHT22;9237;48.590;8.854;2023-01-10T06:52:31;2.90;99.90
18225;DHT22;9237;48.590;8.854;2023-01-10T06:54:58;2.80;99.90
18225;DHT22;9237;48.590;8.854;2023-01-10T06:57:25;2.80;99.90
18225;DHT22;9237;48.590;8.854;2023-01-10T06:59:54;2.80;99.90
18225;DHT22;9237;48.590;8.854;2023-01-10T07:02:21;2.80;99.90
18225;DHT22;9237;48.590;8.854;2023-01-10T07:04:48;2.80;99.90
18225;DHT22;9237;48.590;8.854;2023-01-10T07:07:15;2.70;99.90
18225;DHT22;9237;48.590;8.854;2023-01-10T07:09:42;2.80;99.90
18225;DHT22;9237;48.590;8.854;2023-01-10T07:12:09;2.80;99.90
18225;DHT22;9237;48.590;8.854;2023-01-10T07:14:35;2.80;99.90
18225;DHT22;9237;48.590;8.854;2023-01-10T07:17:04;2.80;99.90
18225;DHT22;9237;48.590;8.854;2023-01-10T07:19:30;2.90;99.90
18225;DHT22;9237;48.590;8.854;2023-01-10T07:21:57;2.80;99.90
18225;DHT22;9237;48.590;8.854;2023-01-10T07:24:24;2.80;99.90
18225;DHT22;9237;48.590;8.854;2023-01-10T07:26:53;2.80;99.90
18225;DHT22;9237;48.590;8.854;2023-01-10T07:29:20;2.80;99.90
18225;DHT22;9237;48.590;8.854;2023-01-10T07:31:47;2.90;99.90
18225;DHT22;9237;48.590;8.854;2023-01-10T07:34:15;2.90;99.90
18225;DHT22;9237;48.590;8.854;2023-01-10T07:36:42;2.90;99.90
18225;DHT22;9237;48.590;8.854;2023-01-10T07:39:09;2.90;99.90
18225;DHT22;9237;48.590;8.854;2023-01-10T07:41:35;2.90;99.90
18225;DHT22;9237;48.590;8.854;2023-01-10T07:44:02;3.00;99.90
18225;DHT22;9237;48.590;8.854;2023-01-10T07:46:29;3.00;99.90
18225;DHT22;9237;48.590;8.854;2023-01-10T07:48:56;3.10;99.90
18225;DHT22;9237;48.590;8.854;2023-01-10T07:51:24;3.10;99.90
18225;DHT22;9237;48.590;8.854;2023-01-10T07:53:51;3.00;99.90
18225;DHT22;9237;48.590;8.854;2023-01-10T07:56:18;3.10;99.90
18225;DHT22;9237;48.590;8.854;2023-01-10T07:58:45;3.20;99.90
18225;DHT22;9237;48.590;8.854;2023-01-10T08:01:11;3.20;99.90
18225;DHT22;9237;48.590;8.854;2023-01-10T08:03:38;3.30;99.90
18225;DHT22;9237;48.590;8.854;2023-01-10T08:06:07;3.30;99.90
18225;DHT22;9237;48.590;8.854;2023-01-10T08:08:37;3.30;99.90
18225;DHT22;9237;48.590;8.854;2023-01-10T08:11:05;3.20;99.90
18225;DHT22;9237;48.590;8.854;2023-01-10T08:13:32;3.20;99.90
18225;DHT22;9237;48.590;8.854;2023-01-10T08:16:02;3.20;99.90
18225;DHT22;9237;48.590;8.854;2023-01-10T08:18:29;3.10;99.90
18225;DHT22;9237;48.590;8.854;2023-01-10T08:20:56;3.20;99.90
18225;DHT22;9237;48.590;8.854;2023-01-10T08:23:23;3.20;99.90
18225;DHT22;9237;48.590;8.854;2023-01-10T08:25:52;3.20;99.90
18225;DHT22;9237;48.590;8.854;2023-01-10T08:28:19;3.30;99.90
18225;DHT22;9237;48.590;8.854;2023-01-10T08:30:46;3.30;99.90
18225;DHT22;9237;48.590;8.854;2023-01-10T08:33:13;3.30;99.90
18225;DHT22;9237;48.590;8.854;2023-01-10T08:35:41;3.40;99.90
18225;DHT22;9237;48.590;8.854;2023-01-10T08:38:10;3.50;99.90
18225;DHT22;9237;48.590;8.854;2023-01-10T08:40:37;3.50;99.90
18225;DHT22;9237;48.590;8.854;2023-01-10T08:43:06;3.50;99.90
18225;DHT22;9237;48.590;8.854;2023-01-10T08:45:34;3.70;99.90
18225;DHT22;9237;48.590;8.854;2023-01-10T08:48:02;3.70;99.90
18225;DHT22;9237;48.590;8.854;2023-01-10T08:50:29;3.80;99.90
18225;DHT22;9237;48.590;8.854;2023-01-10T08:52:56;3.80;99.90
18225;DHT22;9237;48.590;8.854;2023-01-10T08:55:24;3.80;99.90
18225;DHT22;9237;48.590;8.854;2023-01-10T08:57:51;3.80;99.90
18225;DHT22;9237;48.590;8.854;2023-01-10T09:00:20;3.80;99.90
18225;DHT22;9237;48.590;8.854;2023-01-10T09:02:47;3.80;99.90
18225;DHT22;9237;48.590;8.854;2023-01-10T09:05:14;3.90;99.90
18225;DHT22;9237;48.590;8.854;2023-01-10T09:07:41;3.90;99.90
18225;DHT22;9237;48.590;8.854;2023-01-10T09:10:09;4.00;99.90
18225;DHT22;9237;48.590;8.854;2023-01-10T09:12:36;4.00;99.90
18225;DHT22;9237;48.590;8.854;2023-01-10T09:15:24;4.00;99.90
18225;DHT22;9237;48.590;8.854;2023-01-10T09:17:53;4.10;99.90
18225;DHT22;9237;48.590;8.854;2023-01-10T09:20:19;4.10;99.90
18225;DHT22;9237;48.590;8.854;2023-01-10T09:22:46;4.10;99.90
18225;DHT22;9237;48.590;8.854;2023-01-10T09:25:13;4.10;99.90
18225;DHT22;9237;48.590;8.854;2023-01-10T09:27:40;4.10;99.90
18225;DHT22;9237;48.590;8.854;2023-01-10T09:30:08;4.20;99.90
18225;DHT22;9237;48.590;8.854;2023-01-10T09:32:36;4.30;99.90
18225;DHT22;9237;48.590;8.854;2023-01-10T09:35:04;4.30;99.90
18225;DHT22;9237;48.590;8.854;2023-01-10T09:37:31;4.40;99.90
18225;DHT22;9237;48.590;8.854;2023-01-10T09:39:59;4.40;99.90
18225;DHT22;9237;48.590;8.854;2023-01-10T09:42:41;4.40;99.90
18225;DHT22;9237;48.590;8.854;2023-01-10T09:45:15;4.60;99.90
18225;DHT22;9237;48.590;8.854;2023-01-10T09:47:50;4.80;99.90
18225;DHT22;9237;48.590;8.854;2023-01-10T09:50:23;4.90;99.90
18225;DHT22;9237;48.590;8.854;2023-01-10T09:52:56;4.90;99.90
18225;DHT22;9237;48.590;8.854;2023-01-10T09:55:26;4.90;99.90
18225;DHT22;9237;48.590;8.854;2023-01-10T09:57:55;4.90;99.90
18225;DHT22;9237;48.590;8.854;2023-01-10T10:00:30;4.80;99.90
18225;DHT22;9237;48.590;8.854;2023-01-10T10:03:02;4.80;99.90
18225;DHT22;9237;48.590;8.854;2023-01-10T10:05:31;5.00;99.90
18225;DHT22;9237;48.590;8.854;2023-01-10T10:08:00;5.20;99.90
18225;DHT22;9237;48.590;8.854;2023-01-10T10:10:36;5.30;99.90
18225;DHT22;9237;48.590;8.854;2023-01-10T10:13:13;5.50;99.90
18225;DHT22;9237;48.590;8.854;2023-01-10T10:15:47;5.70;99.90
18225;DHT22;9237;48.590;8.854;2023-01-10T10:18:23;5.70;99.90
18225;DHT22;9237;48.590;8.854;2023-01-10T10:20:58;5.80;99.90
18225;DHT22;9237;48.590;8.854;2023-01-10T10:23:54;5.90;99.90
18225;DHT22;9237;48.590;8.854;2023-01-10T10:26:28;5.90;99.90
18225;DHT22;9237;48.590;8.854;2023-01-10T10:32:16;5.90;99.90
18225;DHT22;9237;48.590;8.854;2023-01-10T10:34:52;5.90;99.90
18225;DHT22;9237;48.590;8.854;2023-01-10T10:37:25;5.80;99.90
18225;DHT22;9237;48.590;8.854;2023-01-10T10:40:00;5.80;99.90
18225;DHT22;9237;48.590;8.854;2023-01-10T10:42:29;5.80;99.90
18225;DHT22;9237;48.590;8.854;2023-01-10T10:45:00;5.90;99.90
18225;DHT22;9237;48.590;8.854;2023-01-10T10:47:31;5.80;99.90
18225;DHT22;9237;48.590;8.854;2023-01-10T10:50:06;5.80;99.90
18225;DHT22;9237;48.590;8.854;2023-01-10T10:52:36;5.80;99.90
18225;DHT22;9237;48.590;8.854;2023-01-10T10:55:05;5.80;99.90
18225;DHT22;9237;48.590;8.854;2023-01-10T10:57:36;5.70;99.90
18225;DHT22;9237;48.590;8.854;2023-01-10T11:00:05;5.80;99.90
18225;DHT22;9237;48.590;8.854;2023-01-10T11:02:40;5.70;99.90
18225;DHT22;9237;48.590;8.854;2023-01-10T11:05:17;5.70;99.90
18225;DHT22;9237;48.590;8.854;2023-01-10T11:07:45;5.60;99.90
18225;DHT22;9237;48.590;8.854;2023-01-10T11:13:03;5.70;99.90
18225;DHT22;9237;48.590;8.854;2023-01-10T11:15:39;6.00;99.90
18225;DHT22;9237;48.590;8.854;2023-01-10T11:18:10;6.10;99.90
18225;DHT22;9237;48.590;8.854;2023-01-10T11:20:49;6.10;99.90
18225;DHT22;9237;48.590;8.854;2023-01-10T11:23:22;6.10;99.90
18225;DHT22;9237;48.590;8.854;2023-01-10T11:25:49;6.10;99.90
18225;DHT22;9237;48.590;8.854;2023-01-10T11:28:17;6.20;99.90
18225;DHT22;9237;48.590;8.854;2023-01-10T11:30:49;6.30;99.90
18225;DHT22;9237;48.590;8.854;2023-01-10T11:33:20;6.50;99.90
18225;DHT22;9237;48.590;8.854;2023-01-10T11:36:00;6.40;99.90
18225;DHT22;9237;48.590;8.854;2023-01-10T11:38:27;6.40;99.90
18225;DHT22;9237;48.590;8.854;2023-01-10T11:40:57;6.40;99.90
18225;DHT22;9237;48.590;8.854;2023-01-10T11:43:30;6.50;99.90
18225;DHT22;9237;48.590;8.854;2023-01-10T11:46:00;6.50;99.90
18225;DHT22;9237;48.590;8.854;2023-01-10T11:48:40;6.40;99.90
18225;DHT22;9237;48.590;8.854;2023-01-10T11:51:18;6.30;99.90
18225;DHT22;9237;48.590;8.854;2023-01-10T11:53:46;6.20;99.90
18225;DHT22;9237;48.590;8.854;2023-01-10T11:56:23;6.20;99.90
18225;DHT22;9237;48.590;8.854;2023-01-10T11:58:51;6.30;99.90
18225;DHT22;9237;48.590;8.854;2023-01-10T12:01:28;6.40;99.90
18225;DHT22;9237;48.590;8.854;2023-01-10T12:03:56;6.50;99.90
18225;DHT22;9237;48.590;8.854;2023-01-10T12:06:25;6.50;99.90
18225;DHT22;9237;48.590;8.854;2023-01-10T12:08:53;6.60;99.90
18225;DHT22;9237;48.590;8.854;2023-01-10T12:11:26;6.70;99.90
18225;DHT22;9237;48.590;8.854;2023-01-10T12:13:55;6.70;99.90
18225;DHT22;9237;48.590;8.854;2023-01-10T12:16:24;6.60;99.90
18225;DHT22;9237;48.590;8.854;2023-01-10T12:18:52;6.50;99.90
18225;DHT22;9237;48.590;8.854;2023-01-10T12:21:28;6.40;99.90
18225;DHT22;9237;48.590;8.854;2023-01-10T12:23:59;6.40;99.90
18225;DHT22;9237;48.590;8.854;2023-01-10T12:26:30;6.20;99.90
18225;DHT22;9237;48.590;8.854;2023-01-10T12:29:02;6.20;99.90
18225;DHT22;9237;48.590;8.854;2023-01-10T12:31:32;6.10;99.90
18225;DHT22;9237;48.590;8.854;2023-01-10T12:34:04;6.10;99.90
18225;DHT22;9237;48.590;8.854;2023-01-10T12:36:41;6.10;99.90
18225;DHT22;9237;48.590;8.854;2023-01-10T12:39:14;6.10;99.90
18225;DHT22;9237;48.590;8.854;2023-01-10T12:41:51;6.30;99.90
18225;DHT22;9237;48.590;8.854;2023-01-10T12:44:39;6.50;99.90
18225;DHT22;9237;48.590;8.854;2023-01-10T12:47:23;6.80;99.90
18225;DHT22;9237;48.590;8.854;2023-01-10T12:49:57;6.90;99.90
18225;DHT22;9237;48.590;8.854;2023-01-10T12:52:32;7.00;99.90
18225;DHT22;9237;48.590;8.854;2023-01-10T12:54:59;7.30;99.90
18225;DHT22;9237;48.590;8.854;2023-01-10T12:57:30;7.40;99.90
18225;DHT22;9237;48.590;8.854;2023-01-10T13:00:02;7.50;99.90
18225;DHT22;9237;48.590;8.854;2023-01-10T13:02:40;7.50;99.90
18225;DHT22;9237;48.590;8.854;2023-01-10T13:05:15;7.40;99.90
18225;DHT22;9237;48.590;8.854;2023-01-10T13:07:45;7.20;99.90
18225;DHT22;9237;48.590;8.854;2023-01-10T13:10:14;7.20;99.90
18225;DHT22;9237;48.590;8.854;2023-01-10T13:12:45;7.30;99.90
18225;DHT22;9237;48.590;8.854;2023-01-10T13:15:17;7.40;99.90
18225;DHT22;9237;48.590;8.854;2023-01-10T13:17:48;7.30;99.90
18225;DHT22;9237;48.590;8.854;2023-01-10T13:20:35;7.20;99.90
18225;DHT22;9237;48.590;8.854;2023-01-10T13:23:19;7.00;99.90
18225;DHT22;9237;48.590;8.854;2023-01-10T13:25:55;6.90;99.90
18225;DHT22;9237;48.590;8.854;2023-01-10T13:28:25;6.90;99.90
18225;DHT22;9237;48.590;8.854;2023-01-10T13:30:54;7.00;99.90
18225;DHT22;9237;48.590;8.854;2023-01-10T13:33:23;7.10;99.90
18225;DHT22;9237;48.590;8.854;2023-01-10T13:35:52;7.10;99.90
18225;DHT22;9237;48.590;8.854;2023-01-10T13:38:23;7.00;99.90
18225;DHT22;9237;48.590;8.854;2023-01-10T13:41:01;7.00;99.90
18225;DHT22;9237;48.590;8.854;2023-01-10T13:43:38;6.90;99.90
18225;DHT22;9237;48.590;8.854;2023-01-10T13:46:32;6.70;99.90
18225;DHT22;9237;48.590;8.854;2023-01-10T13:52:29;6.70;99.90
18225;DHT22;9237;48.590;8.854;2023-01-10T13:54:59;6.70;99.90
18225;DHT22;9237;48.590;8.854;2023-01-10T13:57:50;6.70;99.90
18225;DHT22;9237;48.590;8.854;2023-01-10T14:00:22;6.70;99.90
18225;DHT22;9237;48.590;8.854;2023-01-10T14:03:07;6.80;99.90
18225;DHT22;9237;48.590;8.854;2023-01-10T14:05:34;6.70;99.90
18225;DHT22;9237;48.590;8.854;2023-01-10T14:08:01;6.80;99.90
18225;DHT22;9237;48.590;8.854;2023-01-10T14:10:30;6.80;99.90
18225;DHT22;9237;48.590;8.854;2023-01-10T14:13:00;6.80;99.90
18225;DHT22;9237;48.590;8.854;2023-01-10T14:15:38;6.90;99.90
18225;DHT22;9237;48.590;8.854;2023-01-10T14:18:14;6.90;99.90
18225;DHT22;9237;48.590;8.854;2023-01-10T14:20:43;6.80;99.90
18225;DHT22;9237;48.590;8.854;2023-01-10T14:23:18;6.90;99.90
18225;DHT22;9237;48.590;8.854;2023-01-10T14:25:52;6.80;99.90
18225;DHT22;9237;48.590;8.854;2023-01-10T14:28:21;6.70;99.90
18225;DHT22;9237;48.590;8.854;2023-01-10T14:31:02;6.60;99.90
18225;DHT22;9237;48.590;8.854;2023-01-10T14:33:31;6.60;99.90
18225;DHT22;9237;48.590;8.854;2023-01-10T14:36:00;6.40;99.90
18225;DHT22;9237;48.590;8.854;2023-01-10T14:38:29;6.30;99.90
18225;DHT22;9237;48.590;8.854;2023-01-10T14:41:00;6.20;99.90
18225;DHT22;9237;48.590;8.854;2023-01-10T14:43:41;6.00;99.90
18225;DHT22;9237;48.590;8.854;2023-01-10T14:46:12;5.90;99.90
18225;DHT22;9237;48.590;8.854;2023-01-10T14:48:44;5.80;99.90
18225;DHT22;9237;48.590;8.854;2023-01-10T14:51:20;5.70;99.90
18225;DHT22;9237;48.590;8.854;2023-01-10T14:54:11;5.70;99.90
18225;DHT22;9237;48.590;8.854;2023-01-10T14:56:41;5.60;99.90
18225;DHT22;9237;48.590;8.854;2023-01-10T14:59:22;5.50;99.90
18225;DHT22;9237;48.590;8.854;2023-01-10T15:01:51;5.50;99.90
18225;DHT22;9237;48.590;8.854;2023-01-10T15:04:20;5.50;99.90
18225;DHT22;9237;48.590;8.854;2023-01-10T15:06:53;5.40;99.90
18225;DHT22;9237;48.590;8.854;2023-01-10T15:09:20;5.50;99.90
18225;DHT22;9237;48.590;8.854;2023-01-10T15:11:49;5.30;99.90
18225;DHT22;9237;48.590;8.854;2023-01-10T15:14:19;5.30;99.90
18225;DHT22;9237;48.590;8.854;2023-01-10T15:16:48;5.20;99.90
18225;DHT22;9237;48.590;8.854;2023-01-10T15:19:18;5.20;99.90
18225;DHT22;9237;48.590;8.854;2023-01-10T15:21:46;5.10;99.90
18225;DHT22;9237;48.590;8.854;2023-01-10T15:24:26;5.10;99.90
18225;DHT22;9237;48.590;8.854;2023-01-10T15:26:56;5.00;99.90
18225;DHT22;9237;48.590;8.854;2023-01-10T15:29:24;5.00;99.90
18225;DHT22;9237;48.590;8.854;2023-01-10T15:31:53;4.90;99.90
18225;DHT22;9237;48.590;8.854;2023-01-10T15:34:25;4.90;99.90
18225;DHT22;9237;48.590;8.854;2023-01-10T15:36:55;4.70;99.90
18225;DHT22;9237;48.590;8.854;2023-01-10T15:39:24;4.70;99.90
18225;DHT22;9237;48.590;8.854;2023-01-10T15:41:56;4.70;99.90
18225;DHT22;9237;48.590;8.854;2023-01-10T15:44:36;4.60;99.90
18225;DHT22;9237;48.590;8.854;2023-01-10T15:47:04;4.60;99.90
18225;DHT22;9237;48.590;8.854;2023-01-10T15:49:32;4.50;99.90
18225;DHT22;9237;48.590;8.854;2023-01-10T15:51:59;4.40;99.90
18225;DHT22;9237;48.590;8.854;2023-01-10T15:54:30;4.40;99.90
18225;DHT22;9237;48.590;8.854;2023-01-10T15:57:03;4.30;99.90
18225;DHT22;9237;48.590;8.854;2023-01-10T15:59:34;4.20;99.90
18225;DHT22;9237;48.590;8.854;2023-01-10T16:02:15;4.10;99.90
18225;DHT22;9237;48.590;8.854;2023-01-10T16:04:44;4.10;99.90
18225;DHT22;9237;48.590;8.854;2023-01-10T16:07:15;4.00;99.90
18225;DHT22;9237;48.590;8.854;2023-01-10T16:09:48;3.90;99.90
18225;DHT22;9237;48.590;8.854;2023-01-10T16:12:25;3.90;99.90
18225;DHT22;9237;48.590;8.854;2023-01-10T16:15:15;3.80;99.90
18225;DHT22;9237;48.590;8.854;2023-01-10T16:17:44;3.80;99.90
18225;DHT22;9237;48.590;8.854;2023-01-10T16:20:12;3.80;99.90
18225;DHT22;9237;48.590;8.854;2023-01-10T16:22:40;3.70;99.90
18225;DHT22;9237;48.590;8.854;2023-01-10T16:25:12;3.80;99.90
18225;DHT22;9237;48.590;8.854;2023-01-10T16:27:41;3.70;99.90
18225;DHT22;9237;48.590;8.854;2023-01-10T16:30:19;3.70;99.90
18225;DHT22;9237;48.590;8.854;2023-01-10T16:32:47;3.70;99.90
18225;DHT22;9237;48.590;8.854;2023-01-10T16:35:14;3.70;99.90
18225;DHT22;9237;48.590;8.854;2023-01-10T16:37:42;3.60;99.90
18225;DHT22;9237;48.590;8.854;2023-01-10T16:40:28;3.60;99.90